Terminal Aerodrome Forecast
Issued by NWS

Home | Current Version | Previous Version | Text Only | Print | Product List | Glossary Off
Versions: 1 2 3 4 5 6 7 8 9 10 11 12 13 14 15

000
FTUS43 KOAX 241739
TAFCDR
TAF
KCDR 241739Z 2418/2518 32020G28KT P6SM VCSH OVC100
     FM242000 32014KT 3SM -SN BKN008 OVC012
      TEMPO 2420/2422 1SM -SN BR OVC005
     FM242200 32015G25KT P6SM VCSH OVC100
     FM250000 28009KT P6SM BKN100=

USA.gov is the U.S. government's official web portal to all federal, state and local government web resources and services.